createdAt,value
2018-12-01T00:00:30.639Z,45.17
2018-12-01T00:03:03.489Z,42.80
2018-12-01T00:05:39.870Z,45.93
2018-12-01T00:08:10.973Z,44.20
2018-12-01T00:10:41.626Z,44.20
2018-12-01T00:13:12.268Z,47.50
2018-12-01T00:15:43.930Z,46.90
2018-12-01T00:18:14.585Z,49.90
2018-12-01T00:20:45.230Z,47.87
2018-12-01T00:23:15.899Z,51.73
2018-12-01T00:25:46.589Z,50.87
2018-12-01T00:28:17.235Z,52.13
2018-12-01T00:30:47.914Z,54.40
2018-12-01T00:33:19.075Z,56.67
2018-12-01T00:35:49.720Z,58.27
2018-12-01T00:38:20.802Z,55.90
2018-12-01T00:40:51.506Z,54.47
2018-12-01T00:43:22.143Z,55.10
2018-12-01T00:45:52.822Z,55.20
2018-12-01T00:48:23.471Z,54.20
2018-12-01T00:50:54.190Z,54.03
2018-12-01T00:53:24.912Z,54.33
2018-12-01T00:55:55.961Z,53.20
2018-12-01T00:58:26.666Z,52.93
2018-12-01T01:00:57.482Z,53.87
2018-12-01T01:03:28.266Z,52.23
2018-12-01T01:05:59.036Z,56.20
2018-12-01T01:08:29.843Z,57.07
2018-12-01T01:11:05.594Z,55.40
2018-12-01T01:13:36.326Z,49.60
2018-12-01T01:16:09.122Z,54.43
2018-12-01T01:18:39.962Z,56.03
2018-12-01T01:21:10.765Z,55.87
2018-12-01T01:23:41.606Z,55.43
2018-12-01T01:26:12.770Z,54.93
2018-12-01T01:28:44.112Z,54.83
2018-12-01T01:31:15.034Z,56.37
2018-12-01T01:33:45.831Z,56.30
2018-12-01T01:36:16.649Z,57.23
2018-12-01T01:38:47.438Z,55.50
2018-12-01T01:41:18.222Z,49.97
2018-12-01T01:43:49.034Z,48.07
2018-12-01T01:46:19.830Z,44.80
2018-12-01T01:48:50.768Z,48.90
2018-12-01T01:51:21.549Z,46.13
2018-12-01T01:53:52.280Z,47.47
2018-12-01T01:56:23.066Z,46.67
2018-12-01T01:58:54.467Z,49.73
2018-12-01T02:01:25.168Z,50.73
2018-12-01T02:03:56.537Z,50.63
2018-12-01T02:06:27.839Z,51.20
2018-12-01T02:08:59.073Z,50.70
2018-12-01T02:11:29.778Z,51.47
2018-12-01T02:14:00.416Z,48.07
2018-12-01T02:16:34.608Z,47.43
2018-12-01T02:19:05.607Z,49.13
2018-12-01T02:21:36.448Z,51.73
2018-12-01T02:24:07.227Z,51.77
2018-12-01T02:26:38.591Z,53.70
2018-12-01T02:29:09.234Z,52.77
2018-12-01T02:31:39.931Z,51.73
2018-12-01T02:34:10.599Z,57.10
2018-12-01T02:36:41.250Z,49.73
2018-12-01T02:39:11.907Z,52.20
2018-12-01T02:41:42.588Z,51.80
2018-12-01T02:44:24.793Z,52.87
2018-12-01T02:47:06.268Z,52.23
2018-12-01T02:49:37.119Z,52.17
2018-12-01T02:52:08.158Z,52.80
2018-12-01T02:54:39.191Z,50.73
2018-12-01T02:57:09.871Z,52.77
2018-12-01T02:59:41.189Z,51.10
2018-12-01T03:02:11.860Z,53.20
2018-12-01T03:04:42.506Z,51.30
2018-12-01T03:07:13.131Z,48.60
2018-12-01T03:09:43.869Z,49.33
2018-12-01T03:12:15.915Z,52.27
2018-12-01T03:14:46.715Z,52.50
2018-12-01T03:17:17.835Z,48.37
2018-12-01T03:19:48.531Z,49.20
2018-12-01T03:22:20.022Z,49.87
2018-12-01T03:24:50.843Z,51.47
2018-12-01T03:27:21.517Z,50.60
2018-12-01T03:29:52.205Z,45.57
2018-12-01T03:32:22.870Z,48.47
2018-12-01T03:34:53.571Z,48.53
2018-12-01T03:37:24.806Z,49.20
2018-12-01T03:39:55.548Z,51.67
2018-12-01T03:42:26.182Z,52.57
2018-12-01T03:44:59.938Z,50.73
2018-12-01T03:47:30.702Z,52.17
2018-12-01T03:50:05.193Z,55.90
2018-12-01T03:52:35.875Z,50.53
2018-12-01T03:55:12.639Z,47.30
2018-12-01T03:57:43.866Z,45.93
2018-12-01T04:00:14.597Z,46.27
2018-12-01T04:02:45.240Z,45.70
2018-12-01T04:05:15.839Z,44.20
2018-12-01T04:07:46.572Z,44.90
2018-12-01T04:10:17.219Z,41.53
2018-12-01T04:12:48.179Z,39.80
2018-12-01T04:15:19.686Z,40.40
2018-12-01T04:17:50.359Z,39.47
2018-12-01T04:20:21.082Z,37.97
2018-12-01T04:22:51.709Z,35.97
2018-12-01T04:25:22.478Z,32.93
2018-12-01T04:27:53.080Z,37.50
2018-12-01T04:30:25.178Z,36.57
2018-12-01T04:32:55.923Z,38.27
2018-12-01T04:35:26.687Z,39.53
2018-12-01T04:37:57.590Z,42.00
2018-12-01T04:40:28.299Z,43.07
2018-12-01T04:42:59.477Z,45.10
2018-12-01T04:45:30.152Z,42.90
2018-12-01T04:48:00.847Z,43.97
2018-12-01T04:50:33.070Z,40.87
2018-12-01T04:53:05.364Z,42.53
2018-12-01T04:55:36.033Z,38.77
2018-12-01T04:58:07.070Z,35.57
2018-12-01T05:00:37.753Z,42.27
2018-12-01T05:03:08.393Z,42.80
2018-12-01T05:05:39.053Z,41.03
2018-12-01T05:08:09.718Z,38.73
2018-12-01T05:10:41.264Z,36.77
2018-12-01T05:13:11.956Z,39.43
2018-12-01T05:15:42.598Z,35.37
2018-12-01T05:18:13.319Z,35.33
2018-12-01T05:20:43.959Z,36.20
2018-12-01T05:23:14.666Z,37.07
2018-12-01T05:25:45.355Z,36.77
2018-12-01T05:28:15.957Z,40.73
2018-12-01T05:30:46.732Z,40.87
2018-12-01T05:33:17.356Z,38.57
2018-12-01T05:35:48.060Z,37.27
2018-12-01T05:38:19.297Z,37.40
2018-12-01T05:40:49.971Z,34.77
2018-12-01T05:43:20.631Z,34.73
2018-12-01T05:45:51.330Z,34.73
2018-12-01T05:48:23.327Z,32.50
2018-12-01T05:50:53.975Z,30.30
2018-12-01T05:53:24.648Z,31.03
2018-12-01T05:55:55.259Z,29.50
2018-12-01T05:58:25.998Z,29.90
2018-12-01T06:00:59.596Z,30.00
2018-12-01T06:03:30.583Z,30.33
2018-12-01T06:06:03.095Z,31.47
2018-12-01T06:08:33.692Z,32.00
2018-12-01T06:11:05.936Z,30.97
2018-12-01T06:13:36.542Z,34.03
2018-12-01T06:16:07.510Z,33.27
2018-12-01T06:18:38.157Z,33.77
2018-12-01T06:21:08.835Z,34.23
2018-12-01T06:23:40.188Z,32.83
2018-12-01T06:26:10.876Z,33.07
2018-12-01T06:28:42.131Z,35.83
2018-12-01T06:31:12.832Z,35.40
2018-12-01T06:33:44.420Z,36.00
2018-12-01T06:36:15.704Z,35.97
2018-12-01T06:38:47.027Z,36.83
2018-12-01T06:41:18.231Z,35.37
2018-12-01T06:43:48.974Z,34.00
2018-12-01T06:46:19.606Z,35.60
2018-12-01T06:48:50.352Z,36.23
2018-12-01T06:51:20.982Z,34.57
2018-12-01T06:53:51.642Z,35.27
2018-12-01T06:56:22.518Z,36.83
2018-12-01T06:58:53.210Z,38.10
2018-12-01T07:01:23.851Z,38.97
2018-12-01T07:03:54.530Z,36.50
2018-12-01T07:06:25.382Z,39.93
2018-12-01T07:08:56.121Z,36.57
2018-12-01T07:11:26.748Z,35.40
2018-12-01T07:13:57.450Z,34.17
2018-12-01T07:16:28.135Z,34.13
2018-12-01T07:19:12.974Z,32.23
2018-12-01T07:21:43.637Z,30.60
2018-12-01T07:24:14.370Z,29.47
2018-12-01T07:26:45.055Z,28.73
2018-12-01T07:29:15.717Z,28.33
2018-12-01T07:31:46.498Z,29.83
2018-12-01T07:34:17.202Z,32.43
2018-12-01T07:36:47.892Z,31.13
2018-12-01T07:39:18.508Z,32.87
2018-12-01T07:41:49.202Z,32.60
2018-12-01T07:44:19.906Z,31.87
2018-12-01T07:46:50.565Z,32.83
2018-12-01T07:49:21.719Z,31.80
2018-12-01T07:51:52.333Z,33.17
2018-12-01T07:54:22.939Z,29.20
2018-12-01T07:56:53.613Z,29.70
2018-12-01T07:59:24.991Z,28.33
2018-12-01T08:01:56.291Z,29.57
2018-12-01T08:04:26.975Z,28.63
2018-12-01T08:06:57.611Z,26.57
2018-12-01T08:09:31.074Z,28.27
2018-12-01T08:12:03.680Z,25.63
2018-12-01T08:14:34.308Z,25.87
2018-12-01T08:17:05.983Z,26.90
2018-12-01T08:19:36.633Z,24.43
2018-12-01T08:22:07.547Z,26.50
2018-12-01T08:24:38.395Z,24.90
2018-12-01T08:27:09.488Z,24.63
2018-12-01T08:29:40.134Z,23.63
2018-12-01T08:32:10.815Z,23.13
2018-12-01T08:34:41.556Z,25.63
2018-12-01T08:37:12.241Z,24.87
2018-12-01T08:39:42.873Z,23.03
2018-12-01T08:42:13.717Z,21.77
2018-12-01T08:44:44.359Z,23.37
2018-12-01T08:47:15.141Z,22.30
2018-12-01T08:49:45.783Z,21.13
2018-12-01T08:52:16.398Z,21.53
2018-12-01T08:54:47.031Z,21.43
2018-12-01T08:57:17.710Z,22.13
2018-12-01T08:59:49.363Z,20.27
2018-12-01T09:02:20.093Z,20.93
2018-12-01T09:04:50.789Z,20.87
2018-12-01T09:07:21.467Z,20.47
2018-12-01T09:09:52.094Z,19.87
2018-12-01T09:12:22.779Z,20.32
2018-12-01T09:14:53.439Z,19.33
2018-12-01T09:17:24.142Z,19.20
2018-12-01T09:19:54.856Z,19.12
2018-12-01T09:22:25.479Z,18.53
2018-12-01T09:24:57.008Z,19.27
2018-12-01T09:27:27.955Z,17.47
2018-12-01T09:29:58.578Z,18.53
2018-12-01T09:32:29.203Z,18.95
2018-12-01T09:34:59.941Z,20.23
2018-12-01T09:37:30.526Z,21.23
2018-12-01T09:40:02.740Z,21.07
2018-12-01T09:42:33.373Z,20.17
2018-12-01T09:45:04.458Z,21.30
2018-12-01T09:47:35.094Z,23.03
2018-12-01T09:50:08.139Z,24.53
2018-12-01T09:52:38.832Z,22.75
2018-12-01T09:55:13.600Z,23.30
2018-12-01T09:57:44.904Z,21.57
2018-12-01T10:00:16.704Z,47.90
2018-12-01T10:02:47.903Z,50.10
2018-12-01T10:05:19.859Z,48.63
2018-12-01T10:07:50.589Z,54.77
2018-12-01T10:10:22.299Z,55.37
2018-12-01T10:12:54.850Z,50.63
2018-12-01T10:15:29.047Z,49.00
2018-12-01T10:17:59.751Z,39.87
2018-12-01T10:20:35.283Z,43.80
2018-12-01T10:23:11.755Z,51.85
2018-12-01T10:25:42.464Z,50.33
2018-12-01T10:28:13.163Z,47.77
2018-12-01T10:30:43.820Z,51.33
2018-12-01T10:33:14.583Z,57.17
2018-12-01T10:35:45.233Z,51.20
2018-12-01T10:38:17.282Z,51.87
2018-12-01T10:40:47.964Z,51.23
2018-12-01T10:43:18.663Z,40.40
2018-12-01T10:45:49.328Z,37.30
2018-12-01T10:48:19.997Z,45.75
2018-12-01T10:50:50.642Z,48.57
2018-12-01T10:53:21.285Z,50.00
2018-12-01T10:55:52.006Z,49.18
2018-12-01T10:58:22.727Z,49.40
2018-12-01T11:00:58.391Z,42.78
2018-12-01T11:03:35.323Z,35.00
2018-12-01T11:06:13.332Z,30.95
2018-12-01T11:08:43.996Z,27.60
2018-12-01T11:11:14.799Z,30.68
2018-12-01T11:13:45.479Z,31.05
2018-12-01T11:16:16.167Z,28.12
2018-12-01T11:18:47.003Z,24.02
2018-12-01T11:21:17.658Z,24.07
2018-12-01T11:23:49.305Z,25.75
2018-12-01T11:26:20.002Z,21.80
2018-12-01T11:28:50.815Z,22.50
2018-12-01T11:31:21.499Z,24.65
2018-12-01T11:33:52.278Z,23.02
2018-12-01T11:36:23.175Z,20.40
2018-12-01T11:38:54.035Z,20.82
2018-12-01T11:41:24.718Z,21.52
2018-12-01T11:43:55.417Z,19.15
2018-12-01T11:46:26.409Z,19.75
2018-12-01T11:48:57.148Z,19.77
2018-12-01T11:51:27.830Z,20.02
2018-12-01T11:53:58.551Z,20.35
2018-12-01T11:56:29.239Z,20.08
2018-12-01T11:59:04.189Z,20.27
2018-12-01T12:01:35.729Z,20.88
2018-12-01T12:04:07.032Z,24.05
2018-12-01T12:06:37.835Z,21.10
2018-12-01T12:09:09.485Z,20.27
2018-12-01T12:11:40.119Z,21.17
2018-12-01T12:14:11.077Z,20.08
2018-12-01T12:16:41.720Z,19.70
2018-12-01T12:19:12.420Z,19.65
2018-12-01T12:21:43.721Z,19.65
2018-12-01T12:24:14.384Z,22.17
2018-12-01T12:26:45.074Z,22.42
2018-12-01T12:29:15.831Z,21.62
2018-12-01T12:31:46.524Z,22.25
2018-12-01T12:34:17.191Z,22.27
2018-12-01T12:36:47.902Z,22.30
2018-12-01T12:39:18.566Z,24.87
2018-12-01T12:41:49.244Z,27.60
2018-12-01T12:44:20.132Z,26.60
2018-12-01T12:46:50.785Z,27.50
2018-12-01T12:49:21.495Z,23.42
2018-12-01T12:51:52.218Z,24.40
2018-12-01T12:54:23.039Z,25.50
2018-12-01T12:56:53.699Z,24.72
2018-12-01T12:59:24.368Z,22.42
2018-12-01T13:01:55.107Z,21.70
2018-12-01T13:04:25.771Z,20.68
2018-12-01T13:06:56.405Z,21.93
2018-12-01T13:09:27.097Z,20.97
2018-12-01T13:11:57.812Z,21.25
2018-12-01T13:14:28.522Z,21.68
2018-12-01T13:16:59.200Z,21.57
2018-12-01T13:19:29.842Z,21.12
2018-12-01T13:22:00.598Z,15.88
2018-12-01T13:24:34.935Z,16.20
2018-12-01T13:27:05.884Z,17.40
2018-12-01T13:29:36.583Z,18.70
2018-12-01T13:32:08.420Z,19.12
2018-12-01T13:34:39.195Z,18.10
2018-12-01T13:37:10.015Z,12.53
2018-12-01T13:39:40.748Z,10.72
2018-12-01T13:42:11.484Z,8.23
2018-12-01T13:44:42.244Z,6.33
2018-12-01T13:47:13.060Z,8.75
2018-12-01T13:49:43.785Z,9.40
2018-12-01T13:52:15.408Z,8.20
2018-12-01T13:54:46.079Z,9.23
2018-12-01T13:57:16.800Z,10.08
2018-12-01T13:59:47.451Z,10.93
2018-12-01T14:02:18.107Z,7.97
2018-12-01T14:04:49.492Z,6.92
2018-12-01T14:07:20.162Z,5.58
2018-12-01T14:09:50.852Z,4.42
2018-12-01T14:12:21.572Z,3.83
2018-12-01T14:14:52.230Z,3.72
2018-12-01T14:17:23.622Z,4.05
2018-12-01T14:19:54.400Z,4.17
2018-12-01T14:22:25.034Z,4.80
2018-12-01T14:24:55.667Z,5.12
2018-12-01T14:27:26.339Z,7.30
2018-12-01T14:29:57.029Z,4.87
2018-12-01T14:32:34.711Z,4.45
2018-12-01T14:35:36.921Z,4.03
2018-12-01T14:38:12.690Z,4.30
2018-12-01T14:40:47.480Z,4.87
2018-12-01T14:43:18.157Z,4.60
2018-12-01T14:45:49.998Z,4.55
2018-12-01T14:48:20.697Z,4.62
2018-12-01T14:50:52.354Z,4.83
2018-12-01T14:53:23.151Z,4.90
2018-12-01T14:55:53.827Z,4.65
2018-12-01T14:58:24.425Z,5.53
2018-12-01T15:00:55.127Z,5.22
2018-12-01T15:03:26.034Z,4.75
2018-12-01T15:05:56.528Z,5.40
2018-12-01T15:08:27.229Z,5.53
2018-12-01T15:10:57.924Z,5.78
2018-12-01T15:13:29.357Z,5.53
2018-12-01T15:16:00.091Z,5.83
2018-12-01T15:18:35.218Z,5.53
2018-12-01T15:21:08.695Z,5.25
2018-12-01T15:23:39.358Z,4.20
2018-12-01T15:26:11.072Z,4.60
2018-12-01T15:28:41.734Z,5.62
2018-12-01T15:31:12.438Z,4.75
2018-12-01T15:33:43.090Z,4.67
2018-12-01T15:36:13.837Z,4.85
2018-12-01T15:38:45.066Z,3.80
2018-12-01T15:41:17.227Z,4.45
2018-12-01T15:43:47.907Z,4.67
2018-12-01T15:46:18.687Z,4.97
2018-12-01T15:48:49.477Z,4.70
2018-12-01T15:51:20.120Z,5.65
2018-12-01T15:53:51.455Z,5.03
2018-12-01T15:56:22.066Z,4.20
2018-12-01T15:58:52.718Z,4.00
2018-12-01T16:01:24.064Z,4.17
2018-12-01T16:03:54.948Z,3.95
2018-12-01T16:06:25.665Z,4.30
2018-12-01T16:08:56.430Z,4.85
2018-12-01T16:11:27.224Z,4.08
2018-12-01T16:13:58.174Z,4.20
2018-12-01T16:16:28.991Z,4.80
2018-12-01T16:18:59.696Z,5.30
2018-12-01T16:21:30.437Z,4.83
2018-12-01T16:24:05.639Z,5.08
2018-12-01T16:26:36.222Z,5.12
2018-12-01T16:29:07.263Z,5.40
2018-12-01T16:31:37.922Z,5.97
2018-12-01T16:34:08.591Z,6.12
2018-12-01T16:36:39.327Z,6.30
2018-12-01T16:39:11.468Z,6.15
2018-12-01T16:41:42.264Z,7.47
2018-12-01T16:44:13.243Z,7.22
2018-12-01T16:46:44.363Z,6.92
2018-12-01T16:49:15.420Z,7.35
2018-12-01T16:51:46.226Z,7.55
2018-12-01T16:54:16.920Z,6.80
2018-12-01T16:56:47.555Z,7.28
2018-12-01T16:59:18.336Z,8.15
2018-12-01T17:01:48.960Z,7.67
2018-12-01T17:04:19.612Z,7.75
2018-12-01T17:06:51.132Z,7.45
2018-12-01T17:09:21.867Z,8.05
2018-12-01T17:11:52.568Z,8.03
2018-12-01T17:14:23.866Z,9.35
2018-12-01T17:16:55.214Z,10.28
2018-12-01T17:19:26.619Z,9.90
2018-12-01T17:21:58.085Z,10.05
2018-12-01T17:24:39.380Z,10.00
2018-12-01T17:27:10.256Z,8.78
2018-12-01T17:29:42.414Z,9.85
2018-12-01T17:32:14.518Z,9.70
2018-12-01T17:34:45.967Z,10.95
2018-12-01T17:37:24.853Z,10.38
2018-12-01T17:39:55.619Z,10.05
2018-12-01T17:42:26.263Z,9.95
2018-12-01T17:44:57.926Z,10.70
2018-12-01T17:47:28.589Z,10.60
2018-12-01T17:50:00.754Z,10.70
2018-12-01T17:52:36.207Z,11.38
2018-12-01T17:55:09.615Z,10.63
2018-12-01T17:57:40.333Z,11.03
2018-12-01T18:00:16.018Z,11.00
2018-12-01T18:02:45.483Z,10.03
2018-12-01T18:05:17.889Z,10.43
2018-12-01T18:07:48.579Z,11.95
2018-12-01T18:10:19.353Z,10.43
2018-12-01T18:12:50.049Z,10.30
2018-12-01T18:15:21.413Z,10.90
2018-12-01T18:17:52.158Z,10.18
2018-12-01T18:20:23.542Z,11.03
2018-12-01T18:23:03.792Z,10.93
2018-12-01T18:25:44.344Z,9.95
2018-12-01T18:28:18.118Z,9.60
2018-12-01T18:30:48.858Z,10.05
2018-12-01T18:33:28.633Z,9.18
2018-12-01T18:36:00.963Z,9.23
2018-12-01T18:38:32.153Z,9.75
2018-12-01T18:41:05.954Z,10.30
2018-12-01T18:43:36.732Z,9.93
2018-12-01T18:46:09.997Z,9.95
2018-12-01T18:48:40.679Z,11.03
2018-12-01T18:51:11.540Z,11.68
2018-12-01T18:53:42.696Z,13.22
2018-12-01T18:56:20.099Z,13.35
2018-12-01T18:59:05.427Z,13.05
2018-12-01T19:02:29.479Z,13.48
2018-12-01T19:05:00.235Z,14.07
2018-12-01T19:07:31.886Z,12.23
2018-12-01T19:10:04.219Z,11.38
2018-12-01T19:12:35.048Z,12.58
2018-12-01T19:15:06.803Z,12.47
2018-12-01T19:17:37.540Z,12.47
2018-12-01T19:20:11.855Z,11.70
2018-12-01T19:22:42.752Z,13.20
2018-12-01T19:25:15.936Z,12.55
2018-12-01T19:27:46.661Z,15.05
2018-12-01T19:30:18.513Z,16.65
2018-12-01T19:32:52.587Z,19.25
2018-12-01T19:35:23.377Z,19.32
2018-12-01T19:37:55.054Z,21.50
2018-12-01T19:40:33.555Z,20.85
2018-12-01T19:43:05.266Z,17.87
2018-12-01T19:45:35.989Z,16.65
2018-12-01T19:48:08.876Z,17.12
2018-12-01T19:50:40.422Z,14.98
2018-12-01T19:53:13.213Z,14.28
2018-12-01T19:55:44.644Z,14.98
2018-12-01T19:58:17.838Z,16.82
2018-12-01T20:00:51.700Z,15.05
2018-12-01T20:03:23.635Z,14.73
2018-12-01T20:05:54.810Z,14.90
2018-12-01T20:08:26.262Z,14.55
2018-12-01T20:10:59.287Z,16.67
2018-12-01T20:13:31.720Z,18.95
2018-12-01T20:16:21.371Z,18.67
2018-12-01T20:18:52.491Z,16.97
2018-12-01T20:21:29.860Z,17.42
2018-12-01T20:24:00.482Z,20.95
2018-12-01T20:26:31.840Z,34.60
2018-12-01T20:29:05.210Z,35.38
2018-12-01T20:31:35.915Z,31.15
2018-12-01T20:34:07.384Z,32.78
2018-12-01T20:36:40.747Z,18.98
2018-12-01T20:39:24.928Z,14.80
2018-12-01T20:41:55.684Z,13.43
2018-12-01T20:44:27.345Z,14.85
2018-12-01T20:46:57.967Z,16.17
2018-12-01T20:49:28.633Z,16.12
2018-12-01T20:51:59.310Z,14.13
2018-12-01T20:54:37.366Z,13.85
2018-12-01T20:57:14.801Z,14.38
2018-12-01T20:59:46.252Z,15.30
2018-12-01T21:02:17.378Z,14.43
2018-12-01T21:04:48.254Z,13.08
2018-12-01T21:07:18.998Z,15.08
2018-12-01T21:09:49.839Z,13.32
2018-12-01T21:12:21.115Z,14.80
2018-12-01T21:14:52.710Z,16.23
2018-12-01T21:17:23.338Z,15.25
2018-12-01T21:19:53.988Z,14.23
2018-12-01T21:22:24.663Z,12.70
2018-12-01T21:24:55.363Z,12.88
2018-12-01T21:27:27.376Z,12.50
2018-12-01T21:29:58.147Z,12.35
2018-12-01T21:32:28.779Z,12.63
2018-12-01T21:34:59.449Z,10.20
2018-12-01T21:37:30.151Z,40.52
2018-12-01T21:40:00.838Z,30.10
2018-12-01T21:42:31.558Z,25.72
2018-12-01T21:45:02.551Z,15.50
2018-12-01T21:47:33.243Z,31.37
2018-12-01T21:50:04.139Z,20.57
2018-12-01T21:52:34.855Z,16.40
2018-12-01T21:55:07.151Z,17.55
2018-12-01T21:57:37.875Z,13.68
2018-12-01T22:00:20.347Z,15.98
2018-12-01T22:02:52.967Z,17.30
2018-12-01T22:05:25.792Z,21.52
2018-12-01T22:07:56.454Z,19.05
2018-12-01T22:10:27.067Z,21.00
2018-12-01T22:12:59.102Z,21.60
2018-12-01T22:15:29.866Z,23.30
2018-12-01T22:18:00.508Z,19.98
2018-12-01T22:20:33.256Z,20.88
2018-12-01T22:23:03.958Z,20.45
2018-12-01T22:25:34.694Z,21.40
2018-12-01T22:28:09.550Z,24.95
2018-12-01T22:30:40.306Z,27.30
2018-12-01T22:33:13.754Z,34.80
2018-12-01T22:35:46.146Z,34.17
2018-12-01T22:38:16.831Z,28.67
2018-12-01T22:40:47.923Z,29.32
2018-12-01T22:43:18.654Z,33.13
2018-12-01T22:45:49.555Z,32.73
2018-12-01T22:48:23.759Z,25.30
2018-12-01T22:50:54.708Z,26.57
2018-12-01T22:53:25.439Z,25.52
2018-12-01T22:55:56.106Z,24.77
2018-12-01T22:58:27.752Z,24.72
2018-12-01T23:00:59.870Z,28.85
2018-12-01T23:03:32.888Z,30.48
2018-12-01T23:06:07.161Z,32.55
2018-12-01T23:08:38.111Z,30.20
2018-12-01T23:11:09.767Z,34.95
2018-12-01T23:13:40.530Z,33.10
2018-12-01T23:16:11.250Z,29.90
2018-12-01T23:18:41.918Z,28.80
2018-12-01T23:21:12.548Z,30.02
2018-12-01T23:23:43.435Z,29.92
2018-12-01T23:26:14.087Z,28.23
2018-12-01T23:28:44.923Z,26.50
2018-12-01T23:31:15.598Z,28.73
2018-12-01T23:33:46.269Z,27.67
2018-12-01T23:36:16.934Z,25.97
2018-12-01T23:38:48.949Z,27.87
2018-12-01T23:41:26.314Z,25.45
2018-12-01T23:43:56.932Z,25.30
2018-12-01T23:46:29.716Z,25.25
2018-12-01T23:49:00.450Z,24.37
2018-12-01T23:51:32.598Z,27.52
2018-12-01T23:54:05.360Z,24.25
2018-12-01T23:56:36.010Z,24.70
2018-12-01T23:59:06.683Z,24.70
